createdAt,value
2017-11-28T10:27:56.301Z,5.50
2017-11-28T10:32:59.614Z,5.40
2017-11-28T10:38:02.917Z,5.40
2017-11-28T11:28:08.972Z,5.30
2017-11-28T11:33:12.490Z,5.60
2017-11-28T11:38:16.532Z,5.60
2017-11-28T11:43:19.871Z,5.50
2017-11-28T11:48:23.263Z,5.60
2017-11-28T11:53:50.012Z,5.20
2017-11-28T11:58:53.375Z,5.20
2017-11-28T12:04:03.692Z,5.00
2017-11-28T12:09:07.051Z,4.90
2017-11-28T16:36:43.897Z,4.10
2017-11-28T16:41:47.988Z,3.80
2017-11-28T16:46:51.262Z,3.80
2017-11-28T16:51:54.555Z,3.50
2017-11-28T16:56:57.827Z,3.40
2017-11-28T17:02:01.160Z,3.30
2017-11-28T17:07:05.233Z,3.30
2017-11-28T17:12:08.518Z,3.30
2017-11-28T17:17:11.811Z,3.20
2017-11-28T17:22:15.954Z,3.10
2017-11-28T17:27:20.316Z,3.10
2017-11-28T17:32:23.665Z,3.10
2017-11-28T17:37:26.997Z,3.00
2017-11-28T17:42:30.335Z,2.90
2017-11-28T17:47:34.414Z,2.80
2017-11-28T17:52:43.650Z,2.80
2017-11-28T17:57:46.989Z,2.90
2017-11-28T18:02:51.054Z,3.10
2017-11-28T18:07:54.366Z,3.10
2017-11-28T18:12:57.681Z,3.30
2017-11-28T18:18:03.007Z,3.40
2017-11-28T18:23:06.315Z,3.50
2017-11-28T18:28:09.633Z,3.40
2017-11-28T18:33:15.056Z,3.40
2017-11-28T18:38:19.122Z,3.20
2017-11-28T18:43:22.424Z,3.20
2017-11-28T18:48:26.536Z,3.10
2017-11-28T18:53:29.879Z,2.90
